GLO1430 SBSP-SBGO
Flight info
| Callsign | GLO1430 |
|---|---|
| Flight time | 1h 16m |
| Altitude | 38000 |
| Route | GERTU UZ25 CORVO |
| Aircraft | B738/M-SDE2E3FGHIRWXY/LB1 |
Departure
| Time | 2026-05-05 00:34 |
|---|---|
| Airport | Congonhas–Deputado Freitas Nobre Airport (SBSP) |
Arrival
| Time | 2026-05-05 01:50 |
|---|---|
| Airport | Santa Genoveva International Airport (SBGO) |
| Time | Latitude | Longitude | Altitude | Speed | Heading |
|---|---|---|---|---|---|
| 2026-05-05 00:11 | -23.62601 | -46.65900 | 2611 ft | 0 kts | 237° |
| 2026-05-05 00:26 | -23.62598 | -46.65895 | 2611 ft | 2 kts | 237° |
| 2026-05-05 00:26 | -23.62590 | -46.65881 | 2611 ft | 2 kts | 237° |
| 2026-05-05 00:26 | -23.62583 | -46.65870 | 2611 ft | 1 kts | 268° |
| 2026-05-05 00:27 | -23.62588 | -46.65857 | 2611 ft | 1 kts | 325° |
| 2026-05-05 00:27 | -23.62601 | -46.65850 | 2611 ft | 2 kts | 328° |
| 2026-05-05 00:27 | -23.62605 | -46.65847 | 2611 ft | 0 kts | 324° |
| 2026-05-05 00:27 | -23.62605 | -46.65848 | 2611 ft | 0 kts | 324° |
| 2026-05-05 00:30 | -23.62592 | -46.65857 | 2611 ft | 7 kts | 327° |
| 2026-05-05 00:30 | -23.62531 | -46.65898 | 2611 ft | 12 kts | 328° |
| 2026-05-05 00:31 | -23.62444 | -46.65958 | 2611 ft | 16 kts | 327° |
| 2026-05-05 00:31 | -23.62338 | -46.66027 | 2611 ft | 18 kts | 337° |
| 2026-05-05 00:31 | -23.62223 | -46.66054 | 2612 ft | 15 kts | 335° |
| 2026-05-05 00:31 | -23.62134 | -46.66114 | 2612 ft | 14 kts | 327° |
| 2026-05-05 00:32 | -23.62056 | -46.66118 | 2611 ft | 10 kts | 53° |
| 2026-05-05 00:32 | -23.62058 | -46.66069 | 2611 ft | 5 kts | 141° |
| 2026-05-05 00:32 | -23.62067 | -46.66063 | 2611 ft | 0 kts | 148° |
| 2026-05-05 00:33 | -23.62067 | -46.66062 | 2611 ft | 2 kts | 148° |
| 2026-05-05 00:33 | -23.62198 | -46.65974 | 2611 ft | 56 kts | 148° |
| 2026-05-05 00:33 | -23.62729 | -46.65604 | 2617 ft | 121 kts | 148° |
| 2026-05-05 00:34 | -23.63598 | -46.65009 | 2673 ft | 165 kts | 148° |
| 2026-05-05 00:34 | -23.64533 | -46.64340 | 3318 ft | 158 kts | 146° |
| 2026-05-05 00:34 | -23.65453 | -46.63689 | 3854 ft | 163 kts | 153° |
| 2026-05-05 00:34 | -23.66540 | -46.63257 | 4298 ft | 165 kts | 169° |
| 2026-05-05 00:35 | -23.67694 | -46.63203 | 4546 ft | 167 kts | 189° |
| 2026-05-05 00:35 | -23.68807 | -46.63589 | 4768 ft | 171 kts | 208° |
| 2026-05-05 00:35 | -23.69867 | -46.64259 | 4934 ft | 181 kts | 211° |
| 2026-05-05 00:35 | -23.71144 | -46.64664 | 5044 ft | 199 kts | 185° |
| 2026-05-05 00:36 | -23.72586 | -46.64733 | 5124 ft | 216 kts | 184° |
| 2026-05-05 00:36 | -23.74142 | -46.64878 | 5321 ft | 230 kts | 190° |
| 2026-05-05 00:36 | -23.75659 | -46.65523 | 5465 ft | 243 kts | 221° |
| 2026-05-05 00:36 | -23.76638 | -46.67038 | 5793 ft | 253 kts | 253° |
| 2026-05-05 00:37 | -23.76949 | -46.68909 | 6609 ft | 251 kts | 265° |
| 2026-05-05 00:37 | -23.77232 | -46.70759 | 7340 ft | 255 kts | 254° |
| 2026-05-05 00:37 | -23.78004 | -46.72528 | 7691 ft | 260 kts | 239° |
| 2026-05-05 00:37 | -23.79054 | -46.74196 | 8016 ft | 273 kts | 236° |
| 2026-05-05 00:38 | -23.80144 | -46.75828 | 8951 ft | 269 kts | 236° |
| 2026-05-05 00:38 | -23.81215 | -46.77482 | 9853 ft | 266 kts | 236° |
| 2026-05-05 00:38 | -23.82247 | -46.79133 | 10522 ft | 272 kts | 237° |
| 2026-05-05 00:38 | -23.83331 | -46.80890 | 10977 ft | 286 kts | 237° |
| 2026-05-05 00:39 | -23.84467 | -46.82740 | 11414 ft | 300 kts | 237° |
| 2026-05-05 00:39 | -23.85580 | -46.84737 | 11832 ft | 314 kts | 244° |
| 2026-05-05 00:39 | -23.86253 | -46.87041 | 12201 ft | 328 kts | 263° |
| 2026-05-05 00:39 | -23.86168 | -46.89549 | 12593 ft | 343 kts | 281° |
| 2026-05-05 00:40 | -23.85372 | -46.92055 | 12969 ft | 358 kts | 294° |
| 2026-05-05 00:40 | -23.84172 | -46.94486 | 13546 ft | 365 kts | 298° |
| 2026-05-05 00:40 | -23.82874 | -46.96874 | 14167 ft | 370 kts | 299° |
| 2026-05-05 00:40 | -23.81530 | -46.99279 | 14832 ft | 373 kts | 300° |
| 2026-05-05 00:41 | -23.80178 | -47.01698 | 15482 ft | 376 kts | 299° |
| 2026-05-05 00:41 | -23.78828 | -47.04133 | 16091 ft | 379 kts | 298° |
| 2026-05-05 00:41 | -23.77467 | -47.06607 | 16705 ft | 382 kts | 298° |
| 2026-05-05 00:41 | -23.76053 | -47.09092 | 17278 ft | 387 kts | 301° |
| 2026-05-05 00:42 | -23.74329 | -47.11361 | 17819 ft | 395 kts | 314° |
| 2026-05-05 00:42 | -23.72038 | -47.13046 | 18386 ft | 404 kts | 332° |
| 2026-05-05 00:42 | -23.69352 | -47.13996 | 18953 ft | 411 kts | 344° |
| 2026-05-05 00:42 | -23.66536 | -47.14638 | 19450 ft | 417 kts | 346° |
| 2026-05-05 00:43 | -23.63673 | -47.15236 | 19985 ft | 420 kts | 346° |
| 2026-05-05 00:43 | -23.60782 | -47.15831 | 20523 ft | 424 kts | 346° |
| 2026-05-05 00:43 | -23.57867 | -47.16436 | 20996 ft | 429 kts | 346° |
| 2026-05-05 00:43 | -23.54929 | -47.17054 | 21515 ft | 432 kts | 346° |
| 2026-05-05 00:44 | -23.51978 | -47.17682 | 22034 ft | 435 kts | 345° |
| 2026-05-05 00:44 | -23.48964 | -47.18330 | 22516 ft | 439 kts | 345° |
| 2026-05-05 00:44 | -23.45967 | -47.18978 | 23004 ft | 442 kts | 345° |
| 2026-05-05 00:44 | -23.42954 | -47.19632 | 23534 ft | 443 kts | 345° |
| 2026-05-05 00:45 | -23.39904 | -47.20296 | 23943 ft | 448 kts | 345° |
| 2026-05-05 00:45 | -23.36854 | -47.20961 | 24447 ft | 449 kts | 345° |
| 2026-05-05 00:45 | -23.33786 | -47.21631 | 24867 ft | 452 kts | 344° |
| 2026-05-05 00:45 | -23.30684 | -47.22309 | 25309 ft | 455 kts | 344° |
| 2026-05-05 00:46 | -23.27553 | -47.22993 | 25740 ft | 458 kts | 344° |
| 2026-05-05 00:46 | -23.24420 | -47.23677 | 26144 ft | 461 kts | 344° |
| 2026-05-05 00:46 | -23.21289 | -47.24361 | 26554 ft | 463 kts | 344° |
| 2026-05-05 00:46 | -23.18110 | -47.25053 | 26983 ft | 465 kts | 344° |
| 2026-05-05 00:47 | -23.14908 | -47.25750 | 27400 ft | 468 kts | 344° |
| 2026-05-05 00:47 | -23.11739 | -47.26438 | 27798 ft | 470 kts | 344° |
| 2026-05-05 00:47 | -23.08507 | -47.27142 | 28183 ft | 473 kts | 343° |
| 2026-05-05 00:47 | -23.05285 | -47.27842 | 28545 ft | 475 kts | 343° |
| 2026-05-05 00:48 | -23.02012 | -47.28553 | 28966 ft | 477 kts | 343° |
| 2026-05-05 00:48 | -22.98756 | -47.29259 | 29398 ft | 477 kts | 343° |
| 2026-05-05 00:48 | -22.95501 | -47.29962 | 30073 ft | 472 kts | 343° |
| 2026-05-05 00:48 | -22.92305 | -47.30652 | 30578 ft | 470 kts | 343° |
| 2026-05-05 00:49 | -22.89099 | -47.31346 | 31008 ft | 470 kts | 342° |
| 2026-05-05 00:49 | -22.85889 | -47.32041 | 31423 ft | 469 kts | 342° |
| 2026-05-05 00:49 | -22.82658 | -47.32742 | 31838 ft | 469 kts | 342° |
| 2026-05-05 00:49 | -22.79405 | -47.33447 | 32266 ft | 467 kts | 342° |
| 2026-05-05 00:50 | -22.76208 | -47.34139 | 32643 ft | 467 kts | 342° |
| 2026-05-05 00:50 | -22.73057 | -47.34864 | 33051 ft | 463 kts | 339° |
| 2026-05-05 00:50 | -22.70000 | -47.35818 | 33450 ft | 457 kts | 334° |
| 2026-05-05 00:50 | -22.67071 | -47.37092 | 33823 ft | 450 kts | 327° |
| 2026-05-05 00:51 | -22.64299 | -47.38686 | 34152 ft | 444 kts | 321° |
| 2026-05-05 00:51 | -22.61727 | -47.40499 | 34474 ft | 440 kts | 317° |
| 2026-05-05 00:51 | -22.59251 | -47.42445 | 34763 ft | 438 kts | 315° |
| 2026-05-05 00:51 | -22.56859 | -47.44430 | 35038 ft | 438 kts | 315° |
| 2026-05-05 00:52 | -22.54472 | -47.46457 | 35410 ft | 435 kts | 314° |
| 2026-05-05 00:52 | -22.52099 | -47.48484 | 35736 ft | 435 kts | 314° |
| 2026-05-05 00:52 | -22.49721 | -47.50513 | 36032 ft | 434 kts | 314° |
| 2026-05-05 00:52 | -22.47331 | -47.52525 | 36308 ft | 435 kts | 315° |
| 2026-05-05 00:53 | -22.44823 | -47.54370 | 36519 ft | 441 kts | 321° |
| 2026-05-05 00:53 | -22.42089 | -47.55954 | 36744 ft | 448 kts | 327° |
| 2026-05-05 00:53 | -22.39186 | -47.57223 | 36963 ft | 455 kts | 333° |
| 2026-05-05 00:53 | -22.36102 | -47.58174 | 37188 ft | 461 kts | 339° |
| 2026-05-05 00:54 | -22.32949 | -47.58796 | 37453 ft | 465 kts | 344° |
| 2026-05-05 00:54 | -22.29735 | -47.59233 | 37667 ft | 467 kts | 346° |
| 2026-05-05 00:54 | -22.26471 | -47.59615 | 37838 ft | 468 kts | 346° |
| 2026-05-05 00:54 | -22.23220 | -47.59996 | 37969 ft | 469 kts | 346° |
| 2026-05-05 00:55 | -22.19983 | -47.60400 | 38107 ft | 470 kts | 345° |
| 2026-05-05 00:55 | -22.13492 | -47.61298 | 38201 ft | 471 kts | 344° |
| 2026-05-05 00:56 | -22.07011 | -47.62287 | 38202 ft | 467 kts | 343° |
| 2026-05-05 00:56 | -22.00564 | -47.63325 | 38207 ft | 468 kts | 343° |
| 2026-05-05 00:57 | -21.94139 | -47.64385 | 38205 ft | 467 kts | 343° |
| 2026-05-05 00:57 | -21.87683 | -47.65456 | 38200 ft | 468 kts | 343° |
| 2026-05-05 00:58 | -21.81229 | -47.66531 | 38193 ft | 470 kts | 343° |
| 2026-05-05 00:58 | -21.74774 | -47.67601 | 38186 ft | 469 kts | 343° |
| 2026-05-05 00:59 | -21.68323 | -47.68668 | 38190 ft | 468 kts | 343° |
| 2026-05-05 00:59 | -21.61867 | -47.69737 | 38190 ft | 469 kts | 343° |
| 2026-05-05 01:00 | -21.55435 | -47.70801 | 38191 ft | 468 kts | 343° |
| 2026-05-05 01:00 | -21.48973 | -47.71869 | 38189 ft | 469 kts | 343° |
| 2026-05-05 01:01 | -21.42540 | -47.72931 | 38184 ft | 469 kts | 343° |
| 2026-05-05 01:01 | -21.36078 | -47.73997 | 38183 ft | 469 kts | 343° |
| 2026-05-05 01:02 | -21.29610 | -47.75060 | 38185 ft | 467 kts | 343° |
| 2026-05-05 01:02 | -21.23195 | -47.76118 | 38184 ft | 470 kts | 343° |
| 2026-05-05 01:03 | -21.16734 | -47.77182 | 38176 ft | 467 kts | 344° |
| 2026-05-05 01:03 | -21.10271 | -47.78201 | 38179 ft | 468 kts | 345° |
| 2026-05-05 01:04 | -21.03812 | -47.79089 | 38178 ft | 470 kts | 346° |
| 2026-05-05 01:04 | -20.94036 | -47.80377 | 38184 ft | 470 kts | 346° |
| 2026-05-05 01:05 | -20.87528 | -47.81245 | 38169 ft | 471 kts | 346° |
| 2026-05-05 01:05 | -20.81024 | -47.82120 | 38173 ft | 471 kts | 346° |
| 2026-05-05 01:06 | -20.74535 | -47.82997 | 38180 ft | 471 kts | 346° |
| 2026-05-05 01:06 | -20.67999 | -47.83884 | 38178 ft | 471 kts | 346° |
| 2026-05-05 01:07 | -20.61501 | -47.84765 | 38183 ft | 472 kts | 346° |
| 2026-05-05 01:07 | -20.54963 | -47.85651 | 38181 ft | 472 kts | 346° |
| 2026-05-05 01:08 | -20.48471 | -47.86527 | 38176 ft | 472 kts | 346° |
| 2026-05-05 01:08 | -20.41917 | -47.87416 | 38172 ft | 474 kts | 346° |
| 2026-05-05 01:09 | -20.35396 | -47.88295 | 38174 ft | 472 kts | 346° |
| 2026-05-05 01:09 | -20.28829 | -47.89158 | 38175 ft | 473 kts | 346° |
| 2026-05-05 01:10 | -20.22293 | -47.90002 | 38172 ft | 473 kts | 346° |
| 2026-05-05 01:10 | -20.15762 | -47.90842 | 38172 ft | 473 kts | 346° |
| 2026-05-05 01:11 | -20.09209 | -47.91690 | 38166 ft | 476 kts | 346° |
| 2026-05-05 01:11 | -20.02612 | -47.92543 | 38169 ft | 475 kts | 346° |
| 2026-05-05 01:12 | -19.96050 | -47.93391 | 38178 ft | 476 kts | 346° |
| 2026-05-05 01:12 | -19.89471 | -47.94238 | 38193 ft | 476 kts | 346° |
| 2026-05-05 01:13 | -19.82844 | -47.95094 | 38200 ft | 477 kts | 346° |
| 2026-05-05 01:13 | -19.76289 | -47.95940 | 38215 ft | 476 kts | 346° |
| 2026-05-05 01:14 | -19.69690 | -47.96839 | 38212 ft | 475 kts | 346° |
| 2026-05-05 01:14 | -19.63135 | -47.97782 | 38220 ft | 476 kts | 345° |
| 2026-05-05 01:15 | -19.56545 | -47.98735 | 38223 ft | 477 kts | 346° |
| 2026-05-05 01:15 | -19.49961 | -47.99679 | 38237 ft | 476 kts | 346° |
| 2026-05-05 01:16 | -19.43390 | -48.00611 | 38250 ft | 475 kts | 346° |
| 2026-05-05 01:16 | -19.36841 | -48.01540 | 38243 ft | 476 kts | 345° |
| 2026-05-05 01:17 | -19.30265 | -48.02473 | 38254 ft | 477 kts | 345° |
| 2026-05-05 01:17 | -19.23683 | -48.03404 | 38245 ft | 478 kts | 346° |
| 2026-05-05 01:18 | -19.17042 | -48.04339 | 38239 ft | 478 kts | 346° |
| 2026-05-05 01:18 | -19.10463 | -48.05266 | 38232 ft | 478 kts | 346° |
| 2026-05-05 01:19 | -19.03846 | -48.06193 | 38224 ft | 478 kts | 346° |
| 2026-05-05 01:19 | -18.97257 | -48.07119 | 38227 ft | 478 kts | 346° |
| 2026-05-05 01:20 | -18.90705 | -48.08233 | 38224 ft | 475 kts | 340° |
| 2026-05-05 01:20 | -18.84435 | -48.10179 | 38230 ft | 466 kts | 333° |
| 2026-05-05 01:21 | -18.78323 | -48.12529 | 38223 ft | 464 kts | 332° |
| 2026-05-05 01:21 | -18.72294 | -48.14919 | 38219 ft | 462 kts | 332° |
| 2026-05-05 01:22 | -18.66250 | -48.17284 | 38211 ft | 463 kts | 332° |
| 2026-05-05 01:22 | -18.60187 | -48.19624 | 38209 ft | 463 kts | 332° |
| 2026-05-05 01:23 | -18.54141 | -48.21935 | 38218 ft | 462 kts | 332° |
| 2026-05-05 01:23 | -18.48101 | -48.24239 | 38229 ft | 464 kts | 332° |
| 2026-05-05 01:24 | -18.42009 | -48.26555 | 38215 ft | 463 kts | 332° |
| 2026-05-05 01:24 | -18.35901 | -48.28877 | 38199 ft | 465 kts | 332° |
| 2026-05-05 01:25 | -18.29844 | -48.31173 | 38189 ft | 462 kts | 332° |
| 2026-05-05 01:25 | -18.23779 | -48.33471 | 38176 ft | 462 kts | 332° |
| 2026-05-05 01:26 | -18.17708 | -48.35773 | 38175 ft | 462 kts | 332° |
| 2026-05-05 01:26 | -18.11626 | -48.38083 | 38176 ft | 464 kts | 332° |
| 2026-05-05 01:27 | -18.05574 | -48.40377 | 38173 ft | 462 kts | 333° |
| 2026-05-05 01:27 | -17.99531 | -48.42665 | 37699 ft | 459 kts | 333° |
| 2026-05-05 01:28 | -17.96541 | -48.43794 | 37187 ft | 455 kts | 332° |
| 2026-05-05 01:28 | -17.93577 | -48.44912 | 36600 ft | 453 kts | 333° |
| 2026-05-05 01:28 | -17.90584 | -48.46042 | 35971 ft | 452 kts | 333° |
| 2026-05-05 01:28 | -17.87651 | -48.47152 | 35291 ft | 451 kts | 333° |
| 2026-05-05 01:29 | -17.84710 | -48.48264 | 34812 ft | 446 kts | 333° |
| 2026-05-05 01:29 | -17.81794 | -48.49365 | 34299 ft | 442 kts | 333° |
| 2026-05-05 01:29 | -17.78913 | -48.50452 | 33780 ft | 439 kts | 333° |
| 2026-05-05 01:29 | -17.76053 | -48.51533 | 33261 ft | 441 kts | 333° |
| 2026-05-05 01:30 | -17.73164 | -48.52663 | 32749 ft | 441 kts | 330° |
| 2026-05-05 01:30 | -17.70374 | -48.53997 | 32259 ft | 434 kts | 326° |
| 2026-05-05 01:30 | -17.67755 | -48.55486 | 31736 ft | 429 kts | 323° |
| 2026-05-05 01:30 | -17.65172 | -48.57091 | 31204 ft | 426 kts | 323° |
| 2026-05-05 01:31 | -17.62669 | -48.58712 | 30681 ft | 424 kts | 322° |
| 2026-05-05 01:31 | -17.60169 | -48.60355 | 30153 ft | 422 kts | 323° |
| 2026-05-05 01:31 | -17.57699 | -48.61982 | 29628 ft | 420 kts | 323° |
| 2026-05-05 01:31 | -17.55231 | -48.63600 | 29096 ft | 418 kts | 324° |
| 2026-05-05 01:32 | -17.52785 | -48.65196 | 28548 ft | 416 kts | 324° |
| 2026-05-05 01:32 | -17.50320 | -48.66796 | 28011 ft | 414 kts | 325° |
| 2026-05-05 01:32 | -17.47882 | -48.68372 | 27482 ft | 411 kts | 325° |
| 2026-05-05 01:32 | -17.45437 | -48.69950 | 26955 ft | 409 kts | 325° |
| 2026-05-05 01:33 | -17.43032 | -48.71499 | 26434 ft | 407 kts | 325° |
| 2026-05-05 01:33 | -17.40641 | -48.73037 | 25919 ft | 405 kts | 326° |
| 2026-05-05 01:33 | -17.38233 | -48.74586 | 25398 ft | 403 kts | 326° |
| 2026-05-05 01:33 | -17.35844 | -48.76121 | 24878 ft | 401 kts | 326° |
| 2026-05-05 01:34 | -17.33493 | -48.77631 | 24366 ft | 399 kts | 326° |
| 2026-05-05 01:34 | -17.31134 | -48.79145 | 23846 ft | 397 kts | 326° |
| 2026-05-05 01:34 | -17.28758 | -48.80670 | 23326 ft | 395 kts | 326° |
| 2026-05-05 01:34 | -17.26437 | -48.82158 | 22817 ft | 394 kts | 326° |
| 2026-05-05 01:35 | -17.24091 | -48.83662 | 22288 ft | 390 kts | 326° |
| 2026-05-05 01:35 | -17.21807 | -48.85127 | 21810 ft | 384 kts | 326° |
| 2026-05-05 01:35 | -17.19556 | -48.86570 | 21314 ft | 378 kts | 327° |
| 2026-05-05 01:35 | -17.17330 | -48.87996 | 20822 ft | 371 kts | 326° |
| 2026-05-05 01:36 | -17.15132 | -48.89405 | 20331 ft | 366 kts | 327° |
| 2026-05-05 01:36 | -17.12973 | -48.90789 | 19848 ft | 360 kts | 327° |
| 2026-05-05 01:36 | -17.10863 | -48.92140 | 19375 ft | 354 kts | 327° |
| 2026-05-05 01:36 | -17.08791 | -48.93467 | 18911 ft | 349 kts | 327° |
| 2026-05-05 01:37 | -17.06728 | -48.94790 | 18460 ft | 344 kts | 327° |
| 2026-05-05 01:37 | -17.04705 | -48.96086 | 17992 ft | 341 kts | 327° |
| 2026-05-05 01:37 | -17.02675 | -48.97389 | 17531 ft | 338 kts | 328° |
| 2026-05-05 01:37 | -17.00689 | -48.98660 | 17079 ft | 335 kts | 328° |
| 2026-05-05 01:38 | -16.98694 | -48.99937 | 16626 ft | 332 kts | 328° |
| 2026-05-05 01:38 | -16.96727 | -49.01194 | 16173 ft | 330 kts | 328° |
| 2026-05-05 01:38 | -16.94780 | -49.02437 | 15732 ft | 328 kts | 328° |
| 2026-05-05 01:38 | -16.92845 | -49.03671 | 15294 ft | 325 kts | 328° |
| 2026-05-05 01:39 | -16.90927 | -49.04895 | 14852 ft | 323 kts | 328° |
| 2026-05-05 01:39 | -16.88996 | -49.06128 | 14419 ft | 321 kts | 328° |
| 2026-05-05 01:39 | -16.87092 | -49.07343 | 13994 ft | 321 kts | 329° |
| 2026-05-05 01:39 | -16.85177 | -49.08564 | 13562 ft | 326 kts | 329° |
| 2026-05-05 01:40 | -16.83225 | -49.09807 | 13123 ft | 326 kts | 329° |
| 2026-05-05 01:40 | -16.81367 | -49.11114 | 12685 ft | 326 kts | 321° |
| 2026-05-05 01:40 | -16.79813 | -49.12823 | 12246 ft | 326 kts | 306° |
| 2026-05-05 01:40 | -16.78622 | -49.14822 | 11806 ft | 321 kts | 300° |
| 2026-05-05 01:41 | -16.77570 | -49.16857 | 11381 ft | 315 kts | 299° |
| 2026-05-05 01:41 | -16.76560 | -49.18834 | 10964 ft | 309 kts | 299° |
| 2026-05-05 01:41 | -16.75532 | -49.20778 | 10548 ft | 304 kts | 300° |
| 2026-05-05 01:41 | -16.74486 | -49.22685 | 10243 ft | 294 kts | 301° |
| 2026-05-05 01:42 | -16.73484 | -49.24477 | 10127 ft | 278 kts | 301° |
| 2026-05-05 01:42 | -16.72521 | -49.26184 | 9833 ft | 280 kts | 301° |
| 2026-05-05 01:42 | -16.71517 | -49.27962 | 9433 ft | 283 kts | 301° |
| 2026-05-05 01:42 | -16.70535 | -49.29705 | 9183 ft | 278 kts | 302° |
| 2026-05-05 01:43 | -16.69554 | -49.31447 | 8807 ft | 278 kts | 302° |
| 2026-05-05 01:43 | -16.68580 | -49.33176 | 8385 ft | 279 kts | 302° |
| 2026-05-05 01:43 | -16.67603 | -49.34911 | 8017 ft | 277 kts | 302° |
| 2026-05-05 01:43 | -16.66628 | -49.36645 | 7637 ft | 277 kts | 302° |
| 2026-05-05 01:44 | -16.65644 | -49.38395 | 7230 ft | 277 kts | 302° |
| 2026-05-05 01:44 | -16.64655 | -49.40064 | 7122 ft | 264 kts | 308° |
| 2026-05-05 01:44 | -16.63444 | -49.41379 | 6992 ft | 244 kts | 332° |
| 2026-05-05 01:44 | -16.61919 | -49.41886 | 6976 ft | 218 kts | 0° |
| 2026-05-05 01:45 | -16.60430 | -49.41722 | 6669 ft | 215 kts | 17° |
| 2026-05-05 01:45 | -16.59059 | -49.41163 | 6401 ft | 209 kts | 29° |
| 2026-05-05 01:45 | -16.57805 | -49.40404 | 6115 ft | 207 kts | 33° |
| 2026-05-05 01:45 | -16.56609 | -49.39590 | 5859 ft | 202 kts | 40° |
| 2026-05-05 01:46 | -16.55714 | -49.38504 | 5612 ft | 196 kts | 64° |
| 2026-05-05 01:46 | -16.55400 | -49.37182 | 5436 ft | 184 kts | 86° |
| 2026-05-05 01:46 | -16.55512 | -49.35882 | 5168 ft | 176 kts | 103° |
| 2026-05-05 01:46 | -16.56022 | -49.34747 | 4944 ft | 172 kts | 119° |
| 2026-05-05 01:47 | -16.56664 | -49.33693 | 4734 ft | 173 kts | 118° |
| 2026-05-05 01:47 | -16.57272 | -49.32640 | 4543 ft | 164 kts | 117° |
| 2026-05-05 01:47 | -16.57838 | -49.31629 | 4315 ft | 159 kts | 117° |
| 2026-05-05 01:47 | -16.58401 | -49.30627 | 4136 ft | 158 kts | 117° |
| 2026-05-05 01:48 | -16.58949 | -49.29653 | 3942 ft | 155 kts | 117° |
| 2026-05-05 01:48 | -16.59487 | -49.28697 | 3680 ft | 151 kts | 117° |
| 2026-05-05 01:48 | -16.60020 | -49.27748 | 3474 ft | 151 kts | 118° |
| 2026-05-05 01:48 | -16.60555 | -49.26810 | 3256 ft | 150 kts | 119° |
| 2026-05-05 01:49 | -16.61104 | -49.25880 | 3005 ft | 151 kts | 119° |
| 2026-05-05 01:49 | -16.61631 | -49.24932 | 2807 ft | 149 kts | 118° |
| 2026-05-05 01:49 | -16.62139 | -49.24015 | 2656 ft | 146 kts | 120° |
| 2026-05-05 01:49 | -16.62648 | -49.23097 | 2520 ft | 147 kts | 120° |
| 2026-05-05 01:50 | -16.63160 | -49.22178 | 2468 ft | 145 kts | 121° |
| 2026-05-05 01:50 | -16.63580 | -49.21426 | 2466 ft | 83 kts | 119° |
| 2026-05-05 01:50 | -16.63750 | -49.21144 | 2466 ft | 20 kts | 160° |
| 2026-05-05 01:50 | -16.63822 | -49.21252 | 2466 ft | 19 kts | 253° |
| 2026-05-05 01:51 | -16.63821 | -49.21382 | 2466 ft | 18 kts | 297° |
| 2026-05-05 01:51 | -16.63759 | -49.21494 | 2466 ft | 17 kts | 300° |
| 2026-05-05 01:51 | -16.63700 | -49.21601 | 2466 ft | 16 kts | 299° |
| 2026-05-05 01:51 | -16.63644 | -49.21700 | 2466 ft | 15 kts | 301° |
| 2026-05-05 01:52 | -16.63591 | -49.21793 | 2466 ft | 14 kts | 300° |
| 2026-05-05 01:52 | -16.63542 | -49.21883 | 2466 ft | 13 kts | 299° |
| 2026-05-05 01:52 | -16.63495 | -49.21967 | 2466 ft | 13 kts | 300° |
| 2026-05-05 01:52 | -16.63449 | -49.22045 | 2466 ft | 12 kts | 301° |
| 2026-05-05 01:53 | -16.63407 | -49.22121 | 2466 ft | 11 kts | 299° |
| 2026-05-05 01:53 | -16.63368 | -49.22191 | 2466 ft | 10 kts | 300° |
| 2026-05-05 01:53 | -16.63329 | -49.22261 | 2466 ft | 12 kts | 301° |
| 2026-05-05 01:53 | -16.63276 | -49.22352 | 2466 ft | 16 kts | 300° |
| 2026-05-05 01:54 | -16.63223 | -49.22449 | 2466 ft | 10 kts | 299° |
| 2026-05-05 01:54 | -16.63195 | -49.22500 | 2466 ft | 0 kts | 302° |
| 2026-05-05 01:56 | -16.63193 | -49.22501 | 2466 ft | 2 kts | 302° |
| 2026-05-05 01:57 | -16.63180 | -49.22532 | 2466 ft | 5 kts | 270° |
| 2026-05-05 01:57 | -16.63190 | -49.22565 | 2466 ft | 4 kts | 246° |
| 2026-05-05 01:57 | -16.63196 | -49.22579 | 2466 ft | 0 kts | 243° |